sensor_id;sensor_type;location;lat;lon;timestamp;P1;durP1;ratioP1;P2;durP2;ratioP2
24261;SDS011;12385;51.412;5.540;2022-09-09T00:00:16;6.10;;;2.25;;
24261;SDS011;12385;51.412;5.540;2022-09-09T00:02:45;5.25;;;2.33;;
24261;SDS011;12385;51.412;5.540;2022-09-09T00:05:22;6.10;;;3.00;;
24261;SDS011;12385;51.412;5.540;2022-09-09T00:07:55;6.40;;;2.47;;
24261;SDS011;12385;51.412;5.540;2022-09-09T00:13:18;4.22;;;2.20;;
24261;SDS011;12385;51.412;5.540;2022-09-09T00:18:46;5.22;;;2.17;;
24261;SDS011;12385;51.412;5.540;2022-09-09T00:21:39;4.50;;;2.20;;
24261;SDS011;12385;51.412;5.540;2022-09-09T00:27:04;5.05;;;2.63;;
24261;SDS011;12385;51.412;5.540;2022-09-09T00:29:56;5.35;;;2.33;;
24261;SDS011;12385;51.412;5.540;2022-09-09T00:32:27;3.63;;;2.30;;
24261;SDS011;12385;51.412;5.540;2022-09-09T00:34:56;4.88;;;2.22;;
24261;SDS011;12385;51.412;5.540;2022-09-09T00:37:28;8.10;;;2.40;;
24261;SDS011;12385;51.412;5.540;2022-09-09T00:39:57;3.80;;;2.20;;
24261;SDS011;12385;51.412;5.540;2022-09-09T00:42:47;3.45;;;2.38;;
24261;SDS011;12385;51.412;5.540;2022-09-09T00:45:42;5.70;;;2.40;;
24261;SDS011;12385;51.412;5.540;2022-09-09T00:48:12;8.40;;;2.40;;
24261;SDS011;12385;51.412;5.540;2022-09-09T00:50:47;6.57;;;2.20;;
24261;SDS011;12385;51.412;5.540;2022-09-09T00:58:36;11.80;;;2.40;;
24261;SDS011;12385;51.412;5.540;2022-09-09T01:01:05;6.13;;;2.50;;
24261;SDS011;12385;51.412;5.540;2022-09-09T01:03:55;5.40;;;2.20;;
24261;SDS011;12385;51.412;5.540;2022-09-09T01:06:30;4.20;;;2.10;;
24261;SDS011;12385;51.412;5.540;2022-09-09T01:09:07;5.18;;;2.20;;
24261;SDS011;12385;51.412;5.540;2022-09-09T01:12:11;3.78;;;2.00;;
24261;SDS011;12385;51.412;5.540;2022-09-09T01:17:59;6.97;;;1.83;;
24261;SDS011;12385;51.412;5.540;2022-09-09T01:20:23;4.85;;;1.83;;
24261;SDS011;12385;51.412;5.540;2022-09-09T01:23:17;5.50;;;1.90;;
24261;SDS011;12385;51.412;5.540;2022-09-09T01:28:38;5.97;;;2.22;;
24261;SDS011;12385;51.412;5.540;2022-09-09T01:31:05;3.67;;;1.85;;
24261;SDS011;12385;51.412;5.540;2022-09-09T01:33:34;6.85;;;2.03;;
24261;SDS011;12385;51.412;5.540;2022-09-09T01:36:02;4.97;;;2.08;;
24261;SDS011;12385;51.412;5.540;2022-09-09T01:38:32;6.07;;;2.20;;
24261;SDS011;12385;51.412;5.540;2022-09-09T01:41:00;4.72;;;2.05;;
24261;SDS011;12385;51.412;5.540;2022-09-09T01:43:26;10.85;;;2.10;;
24261;SDS011;12385;51.412;5.540;2022-09-09T01:45:54;6.22;;;2.10;;
24261;SDS011;12385;51.412;5.540;2022-09-09T01:48:22;4.93;;;1.77;;
24261;SDS011;12385;51.412;5.540;2022-09-09T01:50:49;5.60;;;2.20;;
24261;SDS011;12385;51.412;5.540;2022-09-09T01:53:15;6.63;;;2.20;;
24261;SDS011;12385;51.412;5.540;2022-09-09T01:55:45;6.15;;;2.00;;
24261;SDS011;12385;51.412;5.540;2022-09-09T01:58:37;7.93;;;2.20;;
24261;SDS011;12385;51.412;5.540;2022-09-09T02:03:55;6.00;;;2.80;;
24261;SDS011;12385;51.412;5.540;2022-09-09T02:06:36;5.35;;;2.25;;
24261;SDS011;12385;51.412;5.540;2022-09-09T02:09:05;7.28;;;2.63;;
24261;SDS011;12385;51.412;5.540;2022-09-09T02:11:35;8.85;;;2.38;;
24261;SDS011;12385;51.412;5.540;2022-09-09T02:14:23;7.90;;;2.38;;
24261;SDS011;12385;51.412;5.540;2022-09-09T02:16:51;9.77;;;2.28;;
24261;SDS011;12385;51.412;5.540;2022-09-09T02:19:35;5.28;;;2.33;;
24261;SDS011;12385;51.412;5.540;2022-09-09T02:22:04;7.67;;;2.20;;
24261;SDS011;12385;51.412;5.540;2022-09-09T02:24:30;6.68;;;2.35;;
24261;SDS011;12385;51.412;5.540;2022-09-09T02:26:59;8.20;;;2.35;;
24261;SDS011;12385;51.412;5.540;2022-09-09T02:29:31;6.60;;;2.25;;
24261;SDS011;12385;51.412;5.540;2022-09-09T02:32:02;6.75;;;2.53;;
24261;SDS011;12385;51.412;5.540;2022-09-09T02:34:32;8.13;;;2.63;;
24261;SDS011;12385;51.412;5.540;2022-09-09T02:37:03;7.45;;;2.58;;
24261;SDS011;12385;51.412;5.540;2022-09-09T02:39:31;7.68;;;2.28;;
24261;SDS011;12385;51.412;5.540;2022-09-09T02:41:58;6.75;;;2.50;;
24261;SDS011;12385;51.412;5.540;2022-09-09T02:44:24;9.25;;;2.50;;
24261;SDS011;12385;51.412;5.540;2022-09-09T02:52:36;12.55;;;2.90;;
24261;SDS011;12385;51.412;5.540;2022-09-09T02:57:41;13.30;;;2.70;;
24261;SDS011;12385;51.412;5.540;2022-09-09T03:00:08;8.38;;;3.30;;
24261;SDS011;12385;51.412;5.540;2022-09-09T03:02:36;9.95;;;2.80;;
24261;SDS011;12385;51.412;5.540;2022-09-09T03:05:02;7.50;;;2.90;;
24261;SDS011;12385;51.412;5.540;2022-09-09T03:07:28;8.95;;;3.00;;
24261;SDS011;12385;51.412;5.540;2022-09-09T03:09:53;7.03;;;3.03;;
24261;SDS011;12385;51.412;5.540;2022-09-09T03:12:19;11.95;;;3.28;;
24261;SDS011;12385;51.412;5.540;2022-09-09T03:14:45;8.50;;;3.30;;
24261;SDS011;12385;51.412;5.540;2022-09-09T03:17:11;8.75;;;3.30;;
24261;SDS011;12385;51.412;5.540;2022-09-09T03:19:37;9.95;;;3.10;;
24261;SDS011;12385;51.412;5.540;2022-09-09T03:22:03;12.02;;;3.50;;
24261;SDS011;12385;51.412;5.540;2022-09-09T03:24:29;13.80;;;3.70;;
24261;SDS011;12385;51.412;5.540;2022-09-09T03:26:55;15.02;;;3.90;;
24261;SDS011;12385;51.412;5.540;2022-09-09T03:29:20;10.57;;;3.60;;
24261;SDS011;12385;51.412;5.540;2022-09-09T03:31:46;13.15;;;3.90;;
24261;SDS011;12385;51.412;5.540;2022-09-09T03:34:12;8.45;;;3.72;;
24261;SDS011;12385;51.412;5.540;2022-09-09T03:36:38;9.65;;;3.70;;
24261;SDS011;12385;51.412;5.540;2022-09-09T03:39:06;11.63;;;3.88;;
24261;SDS011;12385;51.412;5.540;2022-09-09T03:41:31;10.93;;;3.75;;
24261;SDS011;12385;51.412;5.540;2022-09-09T03:43:57;11.15;;;4.13;;
24261;SDS011;12385;51.412;5.540;2022-09-09T03:46:23;8.80;;;3.92;;
24261;SDS011;12385;51.412;5.540;2022-09-09T03:48:49;13.32;;;4.10;;
24261;SDS011;12385;51.412;5.540;2022-09-09T03:51:17;10.98;;;4.25;;
24261;SDS011;12385;51.412;5.540;2022-09-09T03:53:43;12.98;;;4.40;;
24261;SDS011;12385;51.412;5.540;2022-09-09T03:56:09;13.60;;;4.05;;
24261;SDS011;12385;51.412;5.540;2022-09-09T03:58:36;8.43;;;3.70;;
24261;SDS011;12385;51.412;5.540;2022-09-09T04:01:06;8.90;;;3.95;;
24261;SDS011;12385;51.412;5.540;2022-09-09T04:03:33;9.38;;;4.03;;
24261;SDS011;12385;51.412;5.540;2022-09-09T04:06:01;9.88;;;4.28;;
24261;SDS011;12385;51.412;5.540;2022-09-09T04:08:28;15.43;;;4.30;;
24261;SDS011;12385;51.412;5.540;2022-09-09T04:10:56;14.25;;;4.70;;
24261;SDS011;12385;51.412;5.540;2022-09-09T04:13:22;15.18;;;4.55;;
24261;SDS011;12385;51.412;5.540;2022-09-09T04:15:55;14.10;;;4.15;;
24261;SDS011;12385;51.412;5.540;2022-09-09T04:18:23;11.07;;;4.18;;
24261;SDS011;12385;51.412;5.540;2022-09-09T04:20:49;11.60;;;3.83;;
24261;SDS011;12385;51.412;5.540;2022-09-09T04:23:16;12.40;;;4.70;;
24261;SDS011;12385;51.412;5.540;2022-09-09T04:25:46;15.50;;;4.55;;
24261;SDS011;12385;51.412;5.540;2022-09-09T04:28:15;13.82;;;4.43;;
24261;SDS011;12385;51.412;5.540;2022-09-09T04:30:42;13.85;;;4.65;;
24261;SDS011;12385;51.412;5.540;2022-09-09T04:33:09;13.85;;;4.72;;
24261;SDS011;12385;51.412;5.540;2022-09-09T04:35:35;12.93;;;4.57;;
24261;SDS011;12385;51.412;5.540;2022-09-09T04:38:02;15.05;;;4.50;;
24261;SDS011;12385;51.412;5.540;2022-09-09T04:40:29;8.93;;;3.90;;
24261;SDS011;12385;51.412;5.540;2022-09-09T04:42:57;11.10;;;4.20;;
24261;SDS011;12385;51.412;5.540;2022-09-09T04:45:23;13.65;;;4.53;;
24261;SDS011;12385;51.412;5.540;2022-09-09T04:47:49;12.55;;;4.00;;
24261;SDS011;12385;51.412;5.540;2022-09-09T04:50:15;15.85;;;4.05;;
24261;SDS011;12385;51.412;5.540;2022-09-09T04:52:41;14.40;;;3.92;;
24261;SDS011;12385;51.412;5.540;2022-09-09T04:55:07;12.80;;;4.30;;
24261;SDS011;12385;51.412;5.540;2022-09-09T04:57:34;18.15;;;4.25;;
24261;SDS011;12385;51.412;5.540;2022-09-09T05:00:00;13.32;;;4.32;;
24261;SDS011;12385;51.412;5.540;2022-09-09T05:02:27;18.20;;;4.03;;
24261;SDS011;12385;51.412;5.540;2022-09-09T05:04:52;12.23;;;4.03;;
24261;SDS011;12385;51.412;5.540;2022-09-09T05:07:18;11.25;;;4.05;;
24261;SDS011;12385;51.412;5.540;2022-09-09T05:09:44;13.35;;;4.00;;
24261;SDS011;12385;51.412;5.540;2022-09-09T05:12:10;14.73;;;3.78;;
24261;SDS011;12385;51.412;5.540;2022-09-09T05:14:36;11.40;;;3.63;;
24261;SDS011;12385;51.412;5.540;2022-09-09T05:17:02;15.82;;;4.55;;
24261;SDS011;12385;51.412;5.540;2022-09-09T05:19:28;13.38;;;3.70;;
24261;SDS011;12385;51.412;5.540;2022-09-09T05:21:53;13.25;;;3.65;;
24261;SDS011;12385;51.412;5.540;2022-09-09T05:24:19;11.80;;;3.95;;
24261;SDS011;12385;51.412;5.540;2022-09-09T05:26:44;11.63;;;3.92;;
24261;SDS011;12385;51.412;5.540;2022-09-09T05:29:10;10.73;;;3.53;;
24261;SDS011;12385;51.412;5.540;2022-09-09T05:31:36;14.40;;;3.72;;
24261;SDS011;12385;51.412;5.540;2022-09-09T05:34:01;14.38;;;3.63;;
24261;SDS011;12385;51.412;5.540;2022-09-09T05:36:27;13.80;;;3.78;;
24261;SDS011;12385;51.412;5.540;2022-09-09T05:38:52;15.15;;;4.40;;
24261;SDS011;12385;51.412;5.540;2022-09-09T05:41:21;13.30;;;4.32;;
24261;SDS011;12385;51.412;5.540;2022-09-09T05:43:48;16.65;;;4.22;;
24261;SDS011;12385;51.412;5.540;2022-09-09T05:46:20;14.50;;;4.10;;
24261;SDS011;12385;51.412;5.540;2022-09-09T05:48:47;16.08;;;3.78;;
24261;SDS011;12385;51.412;5.540;2022-09-09T05:51:20;15.40;;;4.10;;
24261;SDS011;12385;51.412;5.540;2022-09-09T05:53:49;14.13;;;3.95;;
24261;SDS011;12385;51.412;5.540;2022-09-09T05:56:20;16.63;;;3.50;;
24261;SDS011;12385;51.412;5.540;2022-09-09T05:58:47;14.95;;;3.60;;
24261;SDS011;12385;51.412;5.540;2022-09-09T06:01:15;17.40;;;4.07;;
24261;SDS011;12385;51.412;5.540;2022-09-09T06:03:44;13.07;;;3.65;;
24261;SDS011;12385;51.412;5.540;2022-09-09T06:06:11;15.68;;;3.85;;
24261;SDS011;12385;51.412;5.540;2022-09-09T06:08:42;13.45;;;3.67;;
24261;SDS011;12385;51.412;5.540;2022-09-09T06:13:36;11.15;;;3.35;;
24261;SDS011;12385;51.412;5.540;2022-09-09T06:16:03;14.90;;;3.53;;
24261;SDS011;12385;51.412;5.540;2022-09-09T06:18:30;16.70;;;3.30;;
24261;SDS011;12385;51.412;5.540;2022-09-09T06:20:56;12.18;;;3.22;;
24261;SDS011;12385;51.412;5.540;2022-09-09T06:23:23;11.82;;;3.03;;
24261;SDS011;12385;51.412;5.540;2022-09-09T06:25:50;16.95;;;3.30;;
24261;SDS011;12385;51.412;5.540;2022-09-09T06:28:17;15.48;;;3.25;;
24261;SDS011;12385;51.412;5.540;2022-09-09T06:30:44;17.02;;;3.45;;
24261;SDS011;12385;51.412;5.540;2022-09-09T06:33:09;12.02;;;3.75;;
24261;SDS011;12385;51.412;5.540;2022-09-09T06:35:35;11.65;;;2.78;;
24261;SDS011;12385;51.412;5.540;2022-09-09T06:38:01;14.95;;;3.28;;
24261;SDS011;12385;51.412;5.540;2022-09-09T06:40:27;15.35;;;3.15;;
24261;SDS011;12385;51.412;5.540;2022-09-09T06:42:52;19.02;;;3.17;;
24261;SDS011;12385;51.412;5.540;2022-09-09T06:45:18;14.18;;;3.10;;
24261;SDS011;12385;51.412;5.540;2022-09-09T06:47:43;14.07;;;2.90;;
24261;SDS011;12385;51.412;5.540;2022-09-09T06:50:09;12.63;;;3.03;;
24261;SDS011;12385;51.412;5.540;2022-09-09T06:52:36;15.38;;;3.05;;
24261;SDS011;12385;51.412;5.540;2022-09-09T06:55:01;12.02;;;2.88;;
24261;SDS011;12385;51.412;5.540;2022-09-09T06:57:27;11.68;;;2.67;;
24261;SDS011;12385;51.412;5.540;2022-09-09T06:59:53;15.80;;;2.83;;
24261;SDS011;12385;51.412;5.540;2022-09-09T07:02:18;15.98;;;2.97;;
24261;SDS011;12385;51.412;5.540;2022-09-09T07:04:44;11.05;;;2.60;;
24261;SDS011;12385;51.412;5.540;2022-09-09T07:07:10;14.60;;;2.92;;
24261;SDS011;12385;51.412;5.540;2022-09-09T07:09:38;7.95;;;2.30;;
24261;SDS011;12385;51.412;5.540;2022-09-09T07:12:04;10.55;;;2.35;;
24261;SDS011;12385;51.412;5.540;2022-09-09T07:14:31;13.27;;;2.50;;
24261;SDS011;12385;51.412;5.540;2022-09-09T07:16:57;14.27;;;2.50;;
24261;SDS011;12385;51.412;5.540;2022-09-09T07:19:23;8.55;;;2.10;;
24261;SDS011;12385;51.412;5.540;2022-09-09T07:21:48;14.52;;;2.50;;
24261;SDS011;12385;51.412;5.540;2022-09-09T07:24:14;15.15;;;2.55;;
24261;SDS011;12385;51.412;5.540;2022-09-09T07:26:40;15.10;;;2.45;;
24261;SDS011;12385;51.412;5.540;2022-09-09T07:29:07;12.18;;;2.20;;
24261;SDS011;12385;51.412;5.540;2022-09-09T07:31:37;10.55;;;2.47;;
24261;SDS011;12385;51.412;5.540;2022-09-09T07:34:05;15.05;;;2.35;;
24261;SDS011;12385;51.412;5.540;2022-09-09T07:36:35;10.32;;;1.90;;
24261;SDS011;12385;51.412;5.540;2022-09-09T07:39:04;13.02;;;2.17;;
24261;SDS011;12385;51.412;5.540;2022-09-09T07:41:36;8.88;;;1.98;;
24261;SDS011;12385;51.412;5.540;2022-09-09T07:44:16;7.28;;;2.10;;
24261;SDS011;12385;51.412;5.540;2022-09-09T07:46:43;13.55;;;2.40;;
24261;SDS011;12385;51.412;5.540;2022-09-09T07:49:10;12.32;;;2.20;;
24261;SDS011;12385;51.412;5.540;2022-09-09T07:51:39;16.77;;;1.90;;
24261;SDS011;12385;51.412;5.540;2022-09-09T07:54:08;14.70;;;2.30;;
24261;SDS011;12385;51.412;5.540;2022-09-09T07:56:35;12.25;;;2.50;;
24261;SDS011;12385;51.412;5.540;2022-09-09T07:59:02;12.90;;;2.45;;
24261;SDS011;12385;51.412;5.540;2022-09-09T08:01:32;16.55;;;2.10;;
24261;SDS011;12385;51.412;5.540;2022-09-09T08:04:12;11.98;;;2.05;;
24261;SDS011;12385;51.412;5.540;2022-09-09T08:06:41;10.65;;;2.05;;
24261;SDS011;12385;51.412;5.540;2022-09-09T08:09:09;9.40;;;1.90;;
24261;SDS011;12385;51.412;5.540;2022-09-09T08:11:35;11.57;;;2.20;;
24261;SDS011;12385;51.412;5.540;2022-09-09T08:14:01;9.02;;;1.63;;
24261;SDS011;12385;51.412;5.540;2022-09-09T08:16:29;9.90;;;1.80;;
24261;SDS011;12385;51.412;5.540;2022-09-09T08:18:57;12.73;;;1.88;;
24261;SDS011;12385;51.412;5.540;2022-09-09T08:21:27;9.65;;;2.00;;
24261;SDS011;12385;51.412;5.540;2022-09-09T08:23:54;9.55;;;1.80;;
24261;SDS011;12385;51.412;5.540;2022-09-09T08:26:22;11.25;;;1.80;;
24261;SDS011;12385;51.412;5.540;2022-09-09T08:28:53;9.65;;;1.60;;
24261;SDS011;12385;51.412;5.540;2022-09-09T08:31:21;10.20;;;1.67;;
24261;SDS011;12385;51.412;5.540;2022-09-09T08:33:53;14.23;;;1.80;;
24261;SDS011;12385;51.412;5.540;2022-09-09T08:36:20;10.88;;;2.13;;
24261;SDS011;12385;51.412;5.540;2022-09-09T08:38:47;11.05;;;1.95;;
24261;SDS011;12385;51.412;5.540;2022-09-09T08:44:05;8.05;;;1.58;;
24261;SDS011;12385;51.412;5.540;2022-09-09T08:49:03;11.93;;;1.98;;
24261;SDS011;12385;51.412;5.540;2022-09-09T08:51:39;6.80;;;1.77;;
24261;SDS011;12385;51.412;5.540;2022-09-09T08:54:05;7.65;;;1.73;;
24261;SDS011;12385;51.412;5.540;2022-09-09T08:56:31;10.60;;;1.73;;
24261;SDS011;12385;51.412;5.540;2022-09-09T08:58:57;8.38;;;1.70;;
24261;SDS011;12385;51.412;5.540;2022-09-09T09:09:42;6.47;;;1.60;;
24261;SDS011;12385;51.412;5.540;2022-09-09T09:12:24;7.97;;;1.70;;
24261;SDS011;12385;51.412;5.540;2022-09-09T09:14:54;12.25;;;1.63;;
24261;SDS011;12385;51.412;5.540;2022-09-09T09:17:23;16.33;;;1.92;;
24261;SDS011;12385;51.412;5.540;2022-09-09T09:19:52;6.60;;;1.23;;
24261;SDS011;12385;51.412;5.540;2022-09-09T09:22:19;9.98;;;2.10;;
24261;SDS011;12385;51.412;5.540;2022-09-09T09:24:54;9.27;;;1.77;;
24261;SDS011;12385;51.412;5.540;2022-09-09T09:30:22;8.32;;;1.80;;
24261;SDS011;12385;51.412;5.540;2022-09-09T09:35:30;9.10;;;1.73;;
24261;SDS011;12385;51.412;5.540;2022-09-09T09:37:56;8.77;;;2.05;;
24261;SDS011;12385;51.412;5.540;2022-09-09T09:40:22;8.82;;;1.77;;
24261;SDS011;12385;51.412;5.540;2022-09-09T09:42:52;10.32;;;1.85;;
24261;SDS011;12385;51.412;5.540;2022-09-09T09:48:03;10.13;;;1.50;;
24261;SDS011;12385;51.412;5.540;2022-09-09T09:50:31;9.80;;;1.77;;
24261;SDS011;12385;51.412;5.540;2022-09-09T09:53:02;10.57;;;1.63;;
24261;SDS011;12385;51.412;5.540;2022-09-09T09:55:30;7.47;;;1.35;;
24261;SDS011;12385;51.412;5.540;2022-09-09T09:58:02;10.98;;;1.95;;
24261;SDS011;12385;51.412;5.540;2022-09-09T10:00:32;11.60;;;1.52;;
24261;SDS011;12385;51.412;5.540;2022-09-09T10:03:00;11.80;;;1.80;;
24261;SDS011;12385;51.412;5.540;2022-09-09T10:05:26;8.45;;;1.70;;
24261;SDS011;12385;51.412;5.540;2022-09-09T10:08:00;9.23;;;1.70;;
24261;SDS011;12385;51.412;5.540;2022-09-09T10:10:32;5.70;;;1.27;;
24261;SDS011;12385;51.412;5.540;2022-09-09T10:18:56;12.57;;;1.83;;
24261;SDS011;12385;51.412;5.540;2022-09-09T10:26:55;6.50;;;1.58;;
24261;SDS011;12385;51.412;5.540;2022-09-09T10:29:35;11.75;;;1.80;;
24261;SDS011;12385;51.412;5.540;2022-09-09T10:32:15;9.43;;;1.70;;
24261;SDS011;12385;51.412;5.540;2022-09-09T10:35:04;7.68;;;1.73;;
24261;SDS011;12385;51.412;5.540;2022-09-09T10:37:45;13.55;;;2.63;;
24261;SDS011;12385;51.412;5.540;2022-09-09T10:40:33;11.88;;;2.63;;
24261;SDS011;12385;51.412;5.540;2022-09-09T10:57:20;11.57;;;2.53;;
24261;SDS011;12385;51.412;5.540;2022-09-09T11:00:13;11.07;;;2.50;;
24261;SDS011;12385;51.412;5.540;2022-09-09T11:02:49;10.27;;;2.42;;
24261;SDS011;12385;51.412;5.540;2022-09-09T11:05:44;13.60;;;2.67;;
24261;SDS011;12385;51.412;5.540;2022-09-09T11:08:18;9.65;;;2.53;;
24261;SDS011;12385;51.412;5.540;2022-09-09T11:13:45;12.70;;;2.47;;
24261;SDS011;12385;51.412;5.540;2022-09-09T11:16:26;5.68;;;2.15;;
24261;SDS011;12385;51.412;5.540;2022-09-09T11:19:11;9.98;;;2.33;;
24261;SDS011;12385;51.412;5.540;2022-09-09T11:21:45;9.45;;;2.10;;
24261;SDS011;12385;51.412;5.540;2022-09-09T11:24:19;7.55;;;1.70;;
24261;SDS011;12385;51.412;5.540;2022-09-09T11:26:47;6.00;;;1.95;;
24261;SDS011;12385;51.412;5.540;2022-09-09T11:37:58;6.13;;;1.60;;
24261;SDS011;12385;51.412;5.540;2022-09-09T11:40:32;7.80;;;1.70;;
24261;SDS011;12385;51.412;5.540;2022-09-09T11:43:05;6.72;;;1.70;;
24261;SDS011;12385;51.412;5.540;2022-09-09T11:45:37;8.43;;;1.70;;
24261;SDS011;12385;51.412;5.540;2022-09-09T11:48:04;7.18;;;1.75;;
24261;SDS011;12385;51.412;5.540;2022-09-09T11:50:36;6.57;;;1.60;;
24261;SDS011;12385;51.412;5.540;2022-09-09T11:55:48;8.57;;;1.95;;
24261;SDS011;12385;51.412;5.540;2022-09-09T11:58:30;8.10;;;1.75;;
24261;SDS011;12385;51.412;5.540;2022-09-09T12:01:12;8.23;;;1.80;;
24261;SDS011;12385;51.412;5.540;2022-09-09T12:03:54;10.60;;;2.00;;
24261;SDS011;12385;51.412;5.540;2022-09-09T12:06:32;10.30;;;2.08;;
24261;SDS011;12385;51.412;5.540;2022-09-09T12:09:07;7.70;;;1.95;;
24261;SDS011;12385;51.412;5.540;2022-09-09T12:11:49;5.93;;;1.55;;
24261;SDS011;12385;51.412;5.540;2022-09-09T12:19:39;9.02;;;1.55;;
24261;SDS011;12385;51.412;5.540;2022-09-09T12:24:38;7.28;;;1.70;;
24261;SDS011;12385;51.412;5.540;2022-09-09T12:30:03;8.85;;;1.80;;
24261;SDS011;12385;51.412;5.540;2022-09-09T12:32:34;7.65;;;1.80;;
24261;SDS011;12385;51.412;5.540;2022-09-09T12:37:36;5.03;;;1.50;;
24261;SDS011;12385;51.412;5.540;2022-09-09T12:40:23;6.97;;;1.70;;
24261;SDS011;12385;51.412;5.540;2022-09-09T12:42:53;7.88;;;1.48;;
24261;SDS011;12385;51.412;5.540;2022-09-09T12:45:24;7.18;;;1.45;;
24261;SDS011;12385;51.412;5.540;2022-09-09T12:50:30;5.55;;;1.33;;
24261;SDS011;12385;51.412;5.540;2022-09-09T12:56:00;8.57;;;1.70;;
24261;SDS011;12385;51.412;5.540;2022-09-09T12:58:29;5.85;;;1.52;;
24261;SDS011;12385;51.412;5.540;2022-09-09T13:00:59;7.97;;;1.40;;
24261;SDS011;12385;51.412;5.540;2022-09-09T13:03:29;5.18;;;1.33;;
24261;SDS011;12385;51.412;5.540;2022-09-09T13:06:13;5.40;;;1.20;;
24261;SDS011;12385;51.412;5.540;2022-09-09T13:08:44;6.25;;;1.10;;
24261;SDS011;12385;51.412;5.540;2022-09-09T13:11:12;4.95;;;1.23;;
24261;SDS011;12385;51.412;5.540;2022-09-09T13:13:42;4.90;;;1.10;;
24261;SDS011;12385;51.412;5.540;2022-09-09T13:16:22;7.63;;;1.30;;
24261;SDS011;12385;51.412;5.540;2022-09-09T13:18:51;6.00;;;1.20;;
24261;SDS011;12385;51.412;5.540;2022-09-09T13:21:18;6.07;;;1.52;;
24261;SDS011;12385;51.412;5.540;2022-09-09T13:23:48;6.78;;;1.30;;
24261;SDS011;12385;51.412;5.540;2022-09-09T13:28:49;6.03;;;1.20;;
24261;SDS011;12385;51.412;5.540;2022-09-09T13:33:55;5.60;;;1.05;;
24261;SDS011;12385;51.412;5.540;2022-09-09T13:36:30;6.13;;;1.50;;
24261;SDS011;12385;51.412;5.540;2022-09-09T13:38:58;3.47;;;0.82;;
24261;SDS011;12385;51.412;5.540;2022-09-09T13:41:35;6.07;;;1.40;;
24261;SDS011;12385;51.412;5.540;2022-09-09T13:44:16;5.78;;;1.40;;
24261;SDS011;12385;51.412;5.540;2022-09-09T13:46:48;6.80;;;1.38;;
24261;SDS011;12385;51.412;5.540;2022-09-09T13:49:24;6.00;;;1.50;;
24261;SDS011;12385;51.412;5.540;2022-09-09T13:52:02;6.40;;;1.25;;
24261;SDS011;12385;51.412;5.540;2022-09-09T13:54:36;7.75;;;1.20;;
24261;SDS011;12385;51.412;5.540;2022-09-09T13:57:02;6.47;;;1.30;;
24261;SDS011;12385;51.412;5.540;2022-09-09T13:59:29;4.82;;;0.98;;
24261;SDS011;12385;51.412;5.540;2022-09-09T14:01:55;5.72;;;1.20;;
24261;SDS011;12385;51.412;5.540;2022-09-09T14:04:21;5.93;;;1.40;;
24261;SDS011;12385;51.412;5.540;2022-09-09T14:06:47;5.55;;;1.08;;
24261;SDS011;12385;51.412;5.540;2022-09-09T14:09:14;3.70;;;0.80;;
24261;SDS011;12385;51.412;5.540;2022-09-09T14:11:42;4.05;;;1.02;;
24261;SDS011;12385;51.412;5.540;2022-09-09T14:14:08;4.70;;;0.80;;
24261;SDS011;12385;51.412;5.540;2022-09-09T14:16:34;6.00;;;1.02;;
24261;SDS011;12385;51.412;5.540;2022-09-09T14:19:00;5.68;;;1.13;;
24261;SDS011;12385;51.412;5.540;2022-09-09T14:21:27;5.18;;;1.00;;
24261;SDS011;12385;51.412;5.540;2022-09-09T14:23:52;3.70;;;0.95;;
24261;SDS011;12385;51.412;5.540;2022-09-09T14:26:18;4.65;;;0.90;;
24261;SDS011;12385;51.412;5.540;2022-09-09T14:28:45;4.65;;;1.00;;
24261;SDS011;12385;51.412;5.540;2022-09-09T14:31:11;3.83;;;0.95;;
24261;SDS011;12385;51.412;5.540;2022-09-09T14:33:38;5.90;;;1.27;;
24261;SDS011;12385;51.412;5.540;2022-09-09T14:36:04;4.38;;;1.02;;
24261;SDS011;12385;51.412;5.540;2022-09-09T14:38:33;3.28;;;0.82;;
24261;SDS011;12385;51.412;5.540;2022-09-09T14:41:04;4.55;;;1.10;;
24261;SDS011;12385;51.412;5.540;2022-09-09T14:43:38;5.65;;;0.77;;
24261;SDS011;12385;51.412;5.540;2022-09-09T14:46:05;4.90;;;1.02;;
24261;SDS011;12385;51.412;5.540;2022-09-09T14:48:31;4.70;;;1.20;;
24261;SDS011;12385;51.412;5.540;2022-09-09T14:51:04;2.83;;;0.98;;
24261;SDS011;12385;51.412;5.540;2022-09-09T14:53:32;5.70;;;1.30;;
24261;SDS011;12385;51.412;5.540;2022-09-09T14:56:08;3.75;;;1.00;;
24261;SDS011;12385;51.412;5.540;2022-09-09T14:58:36;7.50;;;0.98;;
24261;SDS011;12385;51.412;5.540;2022-09-09T15:01:03;3.15;;;0.90;;
24261;SDS011;12385;51.412;5.540;2022-09-09T15:03:35;4.05;;;0.90;;
24261;SDS011;12385;51.412;5.540;2022-09-09T15:06:05;3.30;;;0.70;;
24261;SDS011;12385;51.412;5.540;2022-09-09T15:08:33;6.20;;;0.88;;
24261;SDS011;12385;51.412;5.540;2022-09-09T15:11:01;3.00;;;0.90;;
24261;SDS011;12385;51.412;5.540;2022-09-09T15:13:27;5.03;;;1.15;;
24261;SDS011;12385;51.412;5.540;2022-09-09T15:15:53;4.93;;;0.80;;
24261;SDS011;12385;51.412;5.540;2022-09-09T15:18:19;3.90;;;0.80;;
24261;SDS011;12385;51.412;5.540;2022-09-09T15:20:46;2.42;;;0.80;;
24261;SDS011;12385;51.412;5.540;2022-09-09T15:23:12;3.00;;;0.90;;
24261;SDS011;12385;51.412;5.540;2022-09-09T15:25:38;4.78;;;0.93;;
24261;SDS011;12385;51.412;5.540;2022-09-09T15:28:15;5.78;;;1.17;;
24261;SDS011;12385;51.412;5.540;2022-09-09T15:30:41;3.55;;;0.90;;
24261;SDS011;12385;51.412;5.540;2022-09-09T15:33:09;4.60;;;1.40;;
24261;SDS011;12385;51.412;5.540;2022-09-09T15:35:35;4.60;;;1.30;;
24261;SDS011;12385;51.412;5.540;2022-09-09T15:38:02;2.35;;;0.85;;
24261;SDS011;12385;51.412;5.540;2022-09-09T15:40:29;3.58;;;1.00;;
24261;SDS011;12385;51.412;5.540;2022-09-09T15:42:57;5.25;;;1.38;;
24261;SDS011;12385;51.412;5.540;2022-09-09T15:45:23;2.80;;;0.80;;
24261;SDS011;12385;51.412;5.540;2022-09-09T15:47:48;5.35;;;1.08;;
24261;SDS011;12385;51.412;5.540;2022-09-09T15:50:14;7.78;;;1.05;;
24261;SDS011;12385;51.412;5.540;2022-09-09T15:52:40;5.00;;;1.10;;
24261;SDS011;12385;51.412;5.540;2022-09-09T15:55:06;2.75;;;0.90;;
24261;SDS011;12385;51.412;5.540;2022-09-09T15:57:33;3.83;;;1.20;;
24261;SDS011;12385;51.412;5.540;2022-09-09T16:00:00;4.43;;;0.88;;
24261;SDS011;12385;51.412;5.540;2022-09-09T16:02:27;5.57;;;1.10;;
24261;SDS011;12385;51.412;5.540;2022-09-09T16:04:53;4.35;;;0.95;;
24261;SDS011;12385;51.412;5.540;2022-09-09T16:07:18;4.57;;;1.00;;
24261;SDS011;12385;51.412;5.540;2022-09-09T16:09:44;5.43;;;0.95;;
24261;SDS011;12385;51.412;5.540;2022-09-09T16:12:09;3.30;;;1.08;;
24261;SDS011;12385;51.412;5.540;2022-09-09T16:14:37;5.30;;;1.17;;
24261;SDS011;12385;51.412;5.540;2022-09-09T16:17:03;3.17;;;0.98;;
24261;SDS011;12385;51.412;5.540;2022-09-09T16:19:30;5.50;;;1.20;;
24261;SDS011;12385;51.412;5.540;2022-09-09T16:21:56;5.63;;;1.17;;
24261;SDS011;12385;51.412;5.540;2022-09-09T16:24:22;6.35;;;1.38;;
24261;SDS011;12385;51.412;5.540;2022-09-09T16:26:52;7.78;;;1.10;;
24261;SDS011;12385;51.412;5.540;2022-09-09T16:29:19;3.65;;;0.80;;
24261;SDS011;12385;51.412;5.540;2022-09-09T16:31:46;3.85;;;0.95;;
24261;SDS011;12385;51.412;5.540;2022-09-09T16:34:13;4.60;;;0.90;;
24261;SDS011;12385;51.412;5.540;2022-09-09T16:36:40;7.00;;;1.45;;
24261;SDS011;12385;51.412;5.540;2022-09-09T16:39:07;4.70;;;1.00;;
24261;SDS011;12385;51.412;5.540;2022-09-09T16:41:36;7.10;;;1.20;;
24261;SDS011;12385;51.412;5.540;2022-09-09T16:44:04;4.18;;;1.35;;
24261;SDS011;12385;51.412;5.540;2022-09-09T16:46:31;4.97;;;1.38;;
24261;SDS011;12385;51.412;5.540;2022-09-09T16:49:00;7.00;;;1.20;;
24261;SDS011;12385;51.412;5.540;2022-09-09T16:51:28;3.38;;;0.90;;
24261;SDS011;12385;51.412;5.540;2022-09-09T16:53:55;1.65;;;0.70;;
24261;SDS011;12385;51.412;5.540;2022-09-09T16:56:24;1.33;;;0.60;;